Time;durP1;ratioP1;P1;durP2;ratioP2;P2;SDS_P1;SDS_P2;PMS_P1;PMS_P2;Temp;Humidity;BMP_temperature;BMP_pressure;BME280_temperature;BME280_humidity;BME280_pressure;Samples;Min_cycle;Max_cycle;Signal;HPM_P1;HPM_P2
2022/08/04 00:00:30;;;;;;;3.65;2.10;;;;;;;;;;5003855;28;20036;-82
2022/08/04 00:03:26;;;;;;;3.47;2.28;;;;;;;;;;5023772;28;20032;-82
2022/08/04 00:06:18;;;;;;;3.33;2.40;;;;;;;;;;5006579;28;20022;-82
2022/08/04 00:08:48;;;;;;;4.00;2.20;;;;;;;;;;5024629;28;20502;-82
2022/08/04 00:11:25;;;;;;;2.83;2.22;;;;;;;;;;5022732;28;20026;-82
2022/08/04 00:14:04;;;;;;;5.13;2.63;;;;;;;;;;5025354;28;20041;-82
2022/08/04 00:16:36;;;;;;;3.42;2.10;;;;;;;;;;5005941;28;20128;-82
2022/08/04 00:19:11;;;;;;;5.40;2.78;;;;;;;;;;5027286;28;20560;-81
2022/08/04 00:21:41;;;;;;;4.75;2.58;;;;;;;;;;5024025;28;20037;-82
2022/08/04 00:24:07;;;;;;;7.65;2.60;;;;;;;;;;5024418;28;20025;-82
2022/08/04 00:26:33;;;;;;;4.47;2.45;;;;;;;;;;5007238;28;20068;-82
2022/08/04 00:28:59;;;;;;;3.78;2.40;;;;;;;;;;5003911;28;20030;-82
2022/08/04 00:31:26;;;;;;;3.13;2.40;;;;;;;;;;5020234;28;20026;-82
2022/08/04 00:33:52;;;;;;;5.20;2.55;;;;;;;;;;5002319;28;20037;-82
2022/08/04 00:36:18;;;;;;;5.05;2.70;;;;;;;;;;5021657;28;20029;-83
2022/08/04 00:38:43;;;;;;;4.07;2.47;;;;;;;;;;5020063;28;20031;-82
2022/08/04 00:41:18;;;;;;;3.55;2.40;;;;;;;;;;5021700;28;20029;-82
2022/08/04 00:44:05;;;;;;;6.55;2.63;;;;;;;;;;5003195;28;20033;-81
2022/08/04 00:46:54;;;;;;;5.28;2.58;;;;;;;;;;5025214;28;20032;-82
2022/08/04 00:49:52;;;;;;;4.20;2.63;;;;;;;;;;5021634;28;20026;-81
2022/08/04 00:52:36;;;;;;;5.47;2.40;;;;;;;;;;5017781;28;20036;-81
2022/08/04 00:55:15;;;;;;;4.20;2.45;;;;;;;;;;4999487;28;20026;-82
2022/08/04 00:57:59;;;;;;;5.53;2.55;;;;;;;;;;5002068;28;20029;-82
2022/08/04 01:00:24;;;;;;;4.78;2.40;;;;;;;;;;5020721;28;20884;-82
2022/08/04 01:02:50;;;;;;;5.43;2.50;;;;;;;;;;5003075;28;20088;-82
2022/08/04 01:05:50;;;;;;;4.55;2.40;;;;;;;;;;5003429;28;20025;-82
2022/08/04 01:08:35;;;;;;;5.78;2.90;;;;;;;;;;5003305;28;20055;-82
2022/08/04 01:11:26;;;;;;;4.82;2.33;;;;;;;;;;5021077;28;20025;-82
2022/08/04 01:14:18;;;;;;;6.38;2.50;;;;;;;;;;5014977;28;20045;-82
2022/08/04 01:16:50;;;;;;;5.72;2.72;;;;;;;;;;5005755;28;20384;-82
2022/08/04 01:19:34;;;;;;;;;;;;;;;;;;5016766;28;20033;-82
2022/08/04 01:22:14;;;;;;;4.65;2.15;;;;;;;;;;5004809;28;19923;-81
2022/08/04 01:24:46;;;;;;;4.53;2.75;;;;;;;;;;5025358;28;20037;-82
2022/08/04 01:27:32;;;;;;;5.22;2.33;;;;;;;;;;5003894;28;20037;-81
2022/08/04 01:29:59;;;;;;;5.47;2.22;;;;;;;;;;5008202;28;20499;-82
2022/08/04 01:32:35;;;;;;;8.35;2.67;;;;;;;;;;5008044;28;20026;-82
2022/08/04 01:35:06;;;;;;;6.75;2.47;;;;;;;;;;5025767;28;20025;-82
2022/08/04 01:37:53;;;;;;;2.35;1.75;;;;;;;;;;5023029;28;20034;-82
2022/08/04 01:40:20;;;;;;;3.40;2.20;;;;;;;;;;5021073;28;20029;-82
2022/08/04 01:42:51;;;;;;;5.13;2.55;;;;;;;;;;5020941;28;20051;-82
2022/08/04 01:45:16;;;;;;;4.90;2.58;;;;;;;;;;5028546;28;20060;-82
2022/08/04 01:47:48;;;;;;;9.07;2.60;;;;;;;;;;5007062;28;20064;-81
2022/08/04 01:50:14;;;;;;;9.40;3.17;;;;;;;;;;5005409;28;20059;-81
2022/08/04 01:52:42;;;;;;;7.30;2.28;;;;;;;;;;5004933;28;20029;-82
2022/08/04 01:55:09;;;;;;;4.40;2.70;;;;;;;;;;5004660;28;20067;-82
2022/08/04 01:57:43;;;;;;;4.70;3.00;;;;;;;;;;5007691;28;20021;-82
2022/08/04 02:00:11;;;;;;;11.13;2.70;;;;;;;;;;5029837;28;20044;-82
2022/08/04 02:02:36;;;;;;;5.68;2.65;;;;;;;;;;5030738;28;20096;-82
2022/08/04 02:05:02;;;;;;;5.72;2.88;;;;;;;;;;5012484;28;20072;-82
2022/08/04 02:07:34;;;;;;;6.45;3.15;;;;;;;;;;5028683;28;20026;-82
2022/08/04 02:10:05;;;;;;;4.90;2.83;;;;;;;;;;5029842;28;20344;-82
2022/08/04 02:12:52;;;;;;;5.18;2.92;;;;;;;;;;5030869;28;20053;-82
2022/08/04 02:15:20;;;;;;;3.97;2.67;;;;;;;;;;5014622;28;20106;-82
2022/08/04 02:18:28;;;;;;;12.57;2.85;;;;;;;;;;5016372;28;20085;-82
2022/08/04 02:20:57;;;;;;;4.43;2.33;;;;;;;;;;5020153;28;20093;-82
2022/08/04 02:23:29;;;;;;;5.15;2.45;;;;;;;;;;5033376;28;20044;-82
2022/08/04 02:26:05;;;;;;;2.67;2.42;;;;;;;;;;5033531;28;20021;-82
2022/08/04 02:28:46;;;;;;;8.95;2.70;;;;;;;;;;5031760;28;20040;-82
2022/08/04 02:31:32;;;;;;;4.32;2.50;;;;;;;;;;5032278;28;20743;-82
2022/08/04 02:34:17;;;;;;;5.22;2.80;;;;;;;;;;5031749;28;20067;-82
2022/08/04 02:36:43;;;;;;;4.28;2.65;;;;;;;;;;5028093;28;20034;-82
2022/08/04 02:39:10;;;;;;;4.88;2.47;;;;;;;;;;5013689;28;20044;-82
2022/08/04 02:41:38;;;;;;;5.57;2.90;;;;;;;;;;5009888;28;20041;-82
2022/08/04 02:44:09;;;;;;;3.47;2.70;;;;;;;;;;5011211;28;20048;-82
2022/08/04 02:46:36;;;;;;;3.25;2.28;;;;;;;;;;5028521;28;20912;-82
2022/08/04 02:49:05;;;;;;;5.38;2.47;;;;;;;;;;5011534;28;20056;-82
2022/08/04 02:51:34;;;;;;;3.72;2.50;;;;;;;;;;5027588;28;20021;-82
2022/08/04 02:54:02;;;;;;;4.50;2.53;;;;;;;;;;5028787;28;20029;-82
2022/08/04 02:56:31;;;;;;;6.78;2.88;;;;;;;;;;5029365;28;20052;-82
2022/08/04 02:59:06;;;;;;;4.00;2.65;;;;;;;;;;5028120;28;20029;-82
2022/08/04 03:01:31;;;;;;;4.00;2.72;;;;;;;;;;5027822;28;20048;-82
2022/08/04 03:04:35;;;;;;;4.28;2.60;;;;;;;;;;5029387;28;20376;-82
2022/08/04 03:08:06;;;;;;;5.22;2.78;;;;;;;;;;5028096;28;20021;-82
2022/08/04 03:10:46;;;;;;;5.78;2.60;;;;;;;;;;4965329;28;20053;-82
2022/08/04 03:13:27;;;;;;;6.93;2.70;;;;;;;;;;4980381;28;20042;-82
2022/08/04 03:16:46;;;;;;;2.65;2.40;;;;;;;;;;4999444;28;20038;-82
2022/08/04 03:19:42;;;;;;;5.80;3.05;;;;;;;;;;4984342;28;20461;-82
2022/08/04 03:22:47;;;;;;;4.05;2.60;;;;;;;;;;4983827;28;20030;-82
2022/08/04 03:25:28;;;;;;;4.65;2.33;;;;;;;;;;5027341;28;20096;-82
2022/08/04 03:28:27;;;;;;;5.45;3.35;;;;;;;;;;5024822;28;20033;-82
2022/08/04 03:31:14;;;;;;;5.07;2.97;;;;;;;;;;5026149;28;20022;-82
2022/08/04 03:34:17;;;;;;;4.78;2.90;;;;;;;;;;5025943;28;20033;-81
2022/08/04 03:37:00;;;;;;;6.18;2.63;;;;;;;;;;5024112;28;20084;-82
2022/08/04 03:39:59;;;;;;;4.10;2.53;;;;;;;;;;5008681;28;20040;-82
2022/08/04 03:42:59;;;;;;;7.45;2.25;;;;;;;;;;5027952;28;20030;-81
2022/08/04 03:45:52;;;;;;;6.88;2.63;;;;;;;;;;5025048;28;20490;-81
2022/08/04 03:48:45;;;;;;;3.38;2.75;;;;;;;;;;5021426;28;20037;-82
2022/08/04 03:54:50;;;;;;;5.65;3.00;;;;;;;;;;5031017;28;20060;-82
2022/08/04 03:57:37;;;;;;;4.47;2.83;;;;;;;;;;5006809;28;20117;-82
2022/08/04 04:00:07;;;;;;;6.50;2.63;;;;;;;;;;5030195;28;20092;-81
2022/08/04 04:03:09;;;;;;;9.57;2.55;;;;;;;;;;5028940;28;20112;-80
2022/08/04 04:05:55;;;;;;;3.73;2.43;;;;;;;;;;5028561;28;21009;-82
2022/08/04 04:08:28;;;;;;;5.05;2.63;;;;;;;;;;5020849;28;20672;-82
2022/08/04 04:10:56;;;;;;;4.97;2.13;;;;;;;;;;5009946;28;20079;-82
2022/08/04 04:13:25;;;;;;;7.43;2.65;;;;;;;;;;5004560;28;20091;-82
2022/08/04 04:16:06;;;;;;;4.55;2.78;;;;;;;;;;5023042;28;20391;-82
2022/08/04 04:18:57;;;;;;;4.53;2.60;;;;;;;;;;5023710;28;20037;-81
2022/08/04 04:21:55;;;;;;;3.92;2.30;;;;;;;;;;5027067;28;20034;-86
2022/08/04 04:24:48;;;;;;;6.90;2.38;;;;;;;;;;5038003;28;20117;-81
2022/08/04 04:27:32;;;;;;;5.57;2.97;;;;;;;;;;5045007;28;20021;-82
2022/08/04 04:30:19;;;;;;;2.90;2.60;;;;;;;;;;5007774;28;20026;-81
2022/08/04 04:32:56;;;;;;;3.97;2.35;;;;;;;;;;5019574;28;20084;-80
2022/08/04 04:35:24;;;;;;;5.03;2.58;;;;;;;;;;5017234;28;20026;-82
2022/08/04 04:38:17;;;;;;;4.45;2.30;;;;;;;;;;5014862;28;20026;-83
2022/08/04 04:41:04;;;;;;;5.35;2.30;;;;;;;;;;5013968;28;20484;-80
2022/08/04 04:43:59;;;;;;;4.18;2.28;;;;;;;;;;5025839;28;20036;-81
2022/08/04 04:46:34;;;;;;;4.78;2.58;;;;;;;;;;5034927;28;20122;-81
2022/08/04 04:49:04;;;;;;;7.97;2.83;;;;;;;;;;5029254;28;20485;-81
2022/08/04 04:51:43;;;;;;;2.05;1.85;;;;;;;;;;5018738;28;20017;-81
2022/08/04 04:54:29;;;;;;;3.58;2.22;;;;;;;;;;5016616;28;20029;-80
2022/08/04 04:56:58;;;;;;;6.75;2.60;;;;;;;;;;5037087;28;20029;-83
2022/08/04 04:59:27;;;;;;;5.22;2.28;;;;;;;;;;5056484;28;20036;-82
2022/08/04 05:02:08;;;;;;;4.20;2.38;;;;;;;;;;5026320;28;20037;-82
2022/08/04 05:04:45;;;;;;;5.88;2.70;;;;;;;;;;5026186;28;20025;-82
2022/08/04 05:07:33;;;;;;;5.75;2.42;;;;;;;;;;5043288;28;20021;-82
2022/08/04 05:10:17;;;;;;;7.28;2.70;;;;;;;;;;5033921;28;20231;-82
2022/08/04 05:13:02;;;;;;;5.57;2.75;;;;;;;;;;5024858;28;20029;-82
2022/08/04 05:15:33;;;;;;;3.83;2.25;;;;;;;;;;5024318;28;20021;-81
2022/08/04 05:18:00;;;;;;;7.90;2.50;;;;;;;;;;5043203;28;20085;-82
2022/08/04 05:20:32;;;;;;;2.40;2.20;;;;;;;;;;5043417;28;20025;-82
2022/08/04 05:23:02;;;;;;;3.42;1.83;;;;;;;;;;5024562;28;20029;-82
2022/08/04 05:25:36;;;;;;;5.63;2.40;;;;;;;;;;5043306;28;20025;-82
2022/08/04 05:28:35;;;;;;;5.70;2.42;;;;;;;;;;5036244;28;20021;-82
2022/08/04 05:31:25;;;;;;;5.88;2.17;;;;;;;;;;5037833;28;20041;-82
2022/08/04 05:33:55;;;;;;;2.95;2.20;;;;;;;;;;5027651;28;20029;-81
2022/08/04 05:36:29;;;;;;;3.03;1.80;;;;;;;;;;5047118;28;20041;-82
2022/08/04 05:38:58;;;;;;;2.50;2.05;;;;;;;;;;5028357;28;20029;-82
2022/08/04 05:41:26;;;;;;;3.58;2.03;;;;;;;;;;5045612;28;20029;-82
2022/08/04 05:43:51;;;;;;;4.80;2.20;;;;;;;;;;5041825;28;20052;-82
2022/08/04 05:46:18;;;;;;;3.83;1.90;;;;;;;;;;5037424;28;20028;-82
2022/08/04 05:48:45;;;;;;;2.47;1.80;;;;;;;;;;5045927;28;20087;-82
2022/08/04 05:51:11;;;;;;;3.97;1.83;;;;;;;;;;5030201;28;20021;-82
2022/08/04 05:53:38;;;;;;;3.35;2.22;;;;;;;;;;5046129;28;20550;-82
2022/08/04 05:56:05;;;;;;;3.85;2.30;;;;;;;;;;5029508;28;20040;-82
2022/08/04 05:58:31;;;;;;;4.55;2.20;;;;;;;;;;5046036;28;20028;-82
2022/08/04 06:00:59;;;;;;;4.28;2.35;;;;;;;;;;5041782;28;20022;-82
2022/08/04 06:03:27;;;;;;;8.00;2.28;;;;;;;;;;5021307;28;20033;-82
2022/08/04 06:05:53;;;;;;;4.05;2.22;;;;;;;;;;5045594;28;20032;-82
2022/08/04 06:08:19;;;;;;;4.60;2.17;;;;;;;;;;5027572;28;20029;-82
2022/08/04 06:10:46;;;;;;;5.68;1.63;;;;;;;;;;5046075;28;20033;-82
2022/08/04 06:13:15;;;;;;;6.10;2.47;;;;;;;;;;5027433;28;20025;-82
2022/08/04 06:15:44;;;;;;;3.33;1.80;;;;;;;;;;5036416;28;20025;-82
2022/08/04 06:18:12;;;;;;;2.63;2.00;;;;;;;;;;5023437;28;20034;-82
2022/08/04 06:20:41;;;;;;;5.70;2.08;;;;;;;;;;5029838;28;20063;-82
2022/08/04 06:23:10;;;;;;;3.60;2.55;;;;;;;;;;5044910;28;20049;-82
2022/08/04 06:25:40;;;;;;;3.95;2.33;;;;;;;;;;5047303;28;20071;-82
2022/08/04 06:28:06;;;;;;;3.83;2.40;;;;;;;;;;5046493;28;20092;-82
2022/08/04 06:30:33;;;;;;;2.50;1.80;;;;;;;;;;5023726;28;20048;-81
2022/08/04 06:33:01;;;;;;;2.75;2.00;;;;;;;;;;5037101;28;20022;-81
2022/08/04 06:35:28;;;;;;;2.53;1.80;;;;;;;;;;5020079;28;20563;-81
2022/08/04 06:37:56;;;;;;;16.92;2.17;;;;;;;;;;5030624;28;20538;-81
2022/08/04 06:40:24;;;;;;;3.88;1.80;;;;;;;;;;5018231;28;20026;-81
2022/08/04 06:42:50;;;;;;;2.97;2.10;;;;;;;;;;5036377;28;20029;-81
2022/08/04 06:45:18;;;;;;;6.18;2.20;;;;;;;;;;5019221;28;20021;-82
2022/08/04 06:47:44;;;;;;;4.05;2.30;;;;;;;;;;5043217;28;20030;-82
2022/08/04 06:50:11;;;;;;;3.42;2.20;;;;;;;;;;5044294;28;20139;-82
2022/08/04 06:52:37;;;;;;;3.83;2.22;;;;;;;;;;5025077;28;20056;-82
2022/08/04 06:55:05;;;;;;;6.25;2.10;;;;;;;;;;5015898;28;20483;-82
2022/08/04 06:57:32;;;;;;;3.85;2.22;;;;;;;;;;5004589;28;20395;-82
2022/08/04 07:00:03;;;;;;;5.38;2.10;;;;;;;;;;5015986;28;20032;-81
2022/08/04 07:02:31;;;;;;;3.87;2.17;;;;;;;;;;5036346;28;20036;-82
2022/08/04 07:04:57;;;;;;;6.70;2.10;;;;;;;;;;5018904;28;20116;-82
2022/08/04 07:07:24;;;;;;;4.70;2.10;;;;;;;;;;5018567;28;20029;-81
2022/08/04 07:09:49;;;;;;;2.15;1.95;;;;;;;;;;5036488;28;20028;-82
2022/08/04 07:12:19;;;;;;;6.35;2.40;;;;;;;;;;5036744;28;20057;-82
2022/08/04 07:14:45;;;;;;;3.08;1.92;;;;;;;;;;5036049;28;20365;-82
2022/08/04 07:17:13;;;;;;;4.95;2.05;;;;;;;;;;5026025;28;20017;-82
2022/08/04 07:19:38;;;;;;;5.57;2.35;;;;;;;;;;5034035;28;20087;-83
2022/08/04 07:22:07;;;;;;;7.25;2.22;;;;;;;;;;5036403;28;20037;-82
2022/08/04 07:24:35;;;;;;;3.60;2.00;;;;;;;;;;5035620;28;20022;-82
2022/08/04 07:27:00;;;;;;;3.42;1.75;;;;;;;;;;5035115;28;20029;-82
2022/08/04 07:29:27;;;;;;;5.60;2.65;;;;;;;;;;5018304;28;20048;-82
2022/08/04 07:31:54;;;;;;;4.65;2.22;;;;;;;;;;5031676;28;20017;-82
2022/08/04 07:34:19;;;;;;;2.08;1.70;;;;;;;;;;5028228;28;20056;-82
2022/08/04 07:36:45;;;;;;;6.18;1.90;;;;;;;;;;5017273;28;20017;-82
2022/08/04 07:39:15;;;;;;;4.25;1.95;;;;;;;;;;5012025;28;20112;-82
2022/08/04 07:41:42;;;;;;;3.92;1.85;;;;;;;;;;5022849;28;20010;-83
2022/08/04 07:44:12;;;;;;;5.95;2.00;;;;;;;;;;5038167;28;20031;-82
2022/08/04 07:46:37;;;;;;;4.28;1.88;;;;;;;;;;5034369;28;20024;-81
2022/08/04 07:49:04;;;;;;;6.32;2.10;;;;;;;;;;5027788;28;20052;-82
2022/08/04 07:51:31;;;;;;;2.50;1.80;;;;;;;;;;5019439;28;20021;-82
2022/08/04 07:53:57;;;;;;;3.47;1.77;;;;;;;;;;5013876;28;20025;-82
2022/08/04 07:56:24;;;;;;;4.85;1.90;;;;;;;;;;5034617;28;20029;-84
2022/08/04 07:58:50;;;;;;;2.85;1.63;;;;;;;;;;5034663;28;20025;-81
2022/08/04 08:01:15;;;;;;;2.60;1.90;;;;;;;;;;5015594;28;20376;-82
2022/08/04 08:03:41;;;;;;;2.38;1.80;;;;;;;;;;5033795;28;20030;-82
2022/08/04 08:06:08;;;;;;;5.13;2.03;;;;;;;;;;5035085;28;20391;-82
2022/08/04 08:08:37;;;;;;;4.88;1.88;;;;;;;;;;5017820;28;20025;-83
2022/08/04 08:11:04;;;;;;;3.35;1.60;;;;;;;;;;5018402;28;20025;-85
2022/08/04 08:13:29;;;;;;;4.20;1.88;;;;;;;;;;5034241;28;20023;-81
2022/08/04 08:15:55;;;;;;;5.65;1.98;;;;;;;;;;5016642;28;20024;-82
2022/08/04 08:18:21;;;;;;;6.95;2.00;;;;;;;;;;5036607;28;20029;-83
2022/08/04 08:20:46;;;;;;;5.53;1.83;;;;;;;;;;5033003;28;20029;-83
2022/08/04 08:23:12;;;;;;;3.38;1.52;;;;;;;;;;5026095;28;20049;-83
2022/08/04 08:25:37;;;;;;;2.15;1.77;;;;;;;;;;4999169;28;20504;-82
2022/08/04 08:28:05;;;;;;;8.73;2.03;;;;;;;;;;5027813;28;20061;-83
2022/08/04 08:30:32;;;;;;;6.63;1.63;;;;;;;;;;5036355;28;20491;-83
2022/08/04 08:33:00;;;;;;;4.43;1.90;;;;;;;;;;5018271;28;20024;-84
2022/08/04 08:35:28;;;;;;;2.47;1.92;;;;;;;;;;5035962;28;20049;-83
2022/08/04 08:37:57;;;;;;;2.38;1.65;;;;;;;;;;5018043;28;20072;-84
2022/08/04 08:40:25;;;;;;;2.70;1.77;;;;;;;;;;5036000;28;20025;-83
2022/08/04 08:42:53;;;;;;;2.95;2.10;;;;;;;;;;5035656;28;20048;-83
2022/08/04 08:45:50;;;;;;;5.38;1.90;;;;;;;;;;5017781;28;20060;-83
2022/08/04 08:48:20;;;;;;;3.83;1.80;;;;;;;;;;5016853;28;20028;-88
2022/08/04 08:51:16;;;;;;;3.63;1.60;;;;;;;;;;5017268;28;20515;-84
2022/08/04 08:53:53;;;;;;;4.35;1.70;;;;;;;;;;5017787;28;20266;-84
2022/08/04 08:56:44;;;;;;;3.78;2.20;;;;;;;;;;5036793;28;20411;-83
2022/08/04 08:59:25;;;;;;;3.38;1.88;;;;;;;;;;5014056;28;20037;-85
2022/08/04 09:01:56;;;;;;;3.47;1.70;;;;;;;;;;5026194;28;20383;-84
2022/08/04 09:04:59;;;;;;;5.82;1.92;;;;;;;;;;5021865;28;20029;-83
2022/08/04 09:07:30;;;;;;;3.88;1.50;;;;;;;;;;5014490;28;20700;-82
2022/08/04 09:10:19;;;;;;;6.50;1.67;;;;;;;;;;5018333;28;20010;-82
2022/08/04 09:13:05;;;;;;;4.18;1.50;;;;;;;;;;5013926;28;20037;-82
2022/08/04 09:15:43;;;;;;;6.97;1.70;;;;;;;;;;5026641;28;20037;-82
2022/08/04 09:18:24;;;;;;;3.53;1.70;;;;;;;;;;5003502;28;20511;-82
2022/08/04 09:21:02;;;;;;;3.25;1.70;;;;;;;;;;5015383;28;20041;-84
2022/08/04 09:23:31;;;;;;;1.90;1.45;;;;;;;;;;5015216;28;20030;-82
2022/08/04 09:26:07;;;;;;;3.78;1.60;;;;;;;;;;5015007;28;20026;-82
2022/08/04 09:28:56;;;;;;;3.85;1.80;;;;;;;;;;5036796;28;20010;-87
2022/08/04 09:31:32;;;;;;;4.07;1.65;;;;;;;;;;5034117;28;20021;-85
2022/08/04 09:34:08;;;;;;;2.80;1.60;;;;;;;;;;5015126;28;20483;-86
2022/08/04 09:36:55;;;;;;;3.42;1.60;;;;;;;;;;5019897;28;20076;-85
2022/08/04 09:39:45;;;;;;;4.43;1.83;;;;;;;;;;5034826;28;20078;-82
2022/08/04 09:42:41;;;;;;;2.63;1.45;;;;;;;;;;5047199;28;20542;-82
2022/08/04 09:45:22;;;;;;;2.53;1.60;;;;;;;;;;5030739;28;20053;-83
2022/08/04 09:47:59;;;;;;;4.50;1.55;;;;;;;;;;5033571;28;20028;-82
2022/08/04 09:50:36;;;;;;;4.78;1.52;;;;;;;;;;5033208;28;20034;-86
2022/08/04 09:53:07;;;;;;;2.42;1.60;;;;;;;;;;5049466;28;20059;-81
2022/08/04 09:55:47;;;;;;;;;;;;;;;;;;5052896;28;20029;-83
2022/08/04 09:58:21;;;;;;;6.20;1.52;;;;;;;;;;5032477;28;19913;-81
2022/08/04 10:32:21;;;;;;;2.03;1.83;;;;;;;;;;5022786;28;20054;-86
2022/08/04 10:35:12;;;;;;;4.82;1.70;;;;;;;;;;5008421;28;20069;-88
2022/08/04 10:37:56;;;;;;;2.75;1.42;;;;;;;;;;5014597;28;20021;-88
2022/08/04 10:40:35;;;;;;;1.50;1.40;;;;;;;;;;4999298;28;20037;-85
2022/08/04 10:43:05;;;;;;;2.33;1.42;;;;;;;;;;5008763;28;20444;-86
2022/08/04 10:45:46;;;;;;;1.50;1.38;;;;;;;;;;5021980;28;20034;-87
2022/08/04 10:48:17;;;;;;;;;;;;;;;;;;5022440;28;20032;-86
2022/08/04 10:50:58;;;;;;;2.80;1.30;;;;;;;;;;5013157;28;19921;-85
2022/08/04 10:53:25;;;;;;;;;;;;;;;;;;5010593;28;20495;-87
2022/08/04 10:56:17;;;;;;;3.13;1.23;;;;;;;;;;5011587;28;19921;-87
2022/08/04 10:58:48;;;;;;;1.42;1.33;;;;;;;;;;5007538;28;20117;-87
2022/08/04 11:01:26;;;;;;;1.63;1.25;;;;;;;;;;5014406;28;20090;-87
2022/08/04 11:03:59;;;;;;;3.88;1.77;;;;;;;;;;4992508;28;20037;-87
2022/08/04 11:06:25;;;;;;;1.90;1.30;;;;;;;;;;5005987;28;20061;-87
2022/08/04 11:08:54;;;;;;;2.35;1.40;;;;;;;;;;4999975;28;20463;-87
2022/08/04 11:11:34;;;;;;;1.85;1.60;;;;;;;;;;5020667;28;20052;-87
2022/08/04 11:14:10;;;;;;;1.67;1.50;;;;;;;;;;5026982;28;20106;-87
2022/08/04 11:16:43;;;;;;;1.95;1.50;;;;;;;;;;5018846;28;20083;-87
2022/08/04 11:19:30;;;;;;;2.15;1.30;;;;;;;;;;4990558;28;20485;-87
2022/08/04 11:21:59;;;;;;;1.50;1.40;;;;;;;;;;5032355;28;20030;-87
2022/08/04 11:24:27;;;;;;;2.42;1.52;;;;;;;;;;5021546;28;20561;-87
2022/08/04 11:26:58;;;;;;;5.03;1.70;;;;;;;;;;5006341;28;20030;-86
2022/08/04 11:29:48;;;;;;;2.30;1.50;;;;;;;;;;5007879;28;20053;-87
2022/08/04 11:32:19;;;;;;;1.60;1.50;;;;;;;;;;5006525;28;20042;-88
2022/08/04 11:34:51;;;;;;;2.15;1.30;;;;;;;;;;4994397;28;20025;-86
2022/08/04 11:37:23;;;;;;;2.08;1.52;;;;;;;;;;5000612;28;20037;-86
2022/08/04 11:40:12;;;;;;;2.75;1.42;;;;;;;;;;4983901;28;20029;-87
2022/08/04 11:42:53;;;;;;;1.52;1.42;;;;;;;;;;5002549;28;20056;-86
2022/08/04 11:45:26;;;;;;;1.40;1.30;;;;;;;;;;5010994;28;20040;-85
2022/08/04 11:48:02;;;;;;;1.80;1.70;;;;;;;;;;5009539;28;20096;-86
2022/08/04 11:50:43;;;;;;;1.90;1.38;;;;;;;;;;4982009;28;20048;-85
2022/08/04 11:53:15;;;;;;;2.72;1.38;;;;;;;;;;4996087;28;20298;-87
2022/08/04 11:55:43;;;;;;;4.82;1.40;;;;;;;;;;4982488;28;20080;-87
2022/08/04 11:58:08;;;;;;;2.42;1.63;;;;;;;;;;5011840;28;20542;-87
2022/08/04 12:00:39;;;;;;;2.53;1.67;;;;;;;;;;5011049;28;20101;-86
2022/08/04 12:03:33;;;;;;;3.22;1.75;;;;;;;;;;5015589;28;20037;-86
2022/08/04 12:06:24;;;;;;;8.52;1.90;;;;;;;;;;4997867;28;20041;-87
2022/08/04 12:08:49;;;;;;;;;;;;;;;;;;5016381;28;20040;-87
2022/08/04 12:11:31;;;;;;;3.30;1.63;;;;;;;;;;5015990;28;19909;-87
2022/08/04 12:14:10;;;;;;;1.92;1.65;;;;;;;;;;5018223;28;20286;-84
2022/08/04 12:16:54;;;;;;;4.53;1.70;;;;;;;;;;5019517;28;20038;-86
2022/08/04 12:19:30;;;;;;;2.25;1.60;;;;;;;;;;5020678;28;20096;-86
2022/08/04 12:22:02;;;;;;;2.47;1.70;;;;;;;;;;5016542;28;20033;-86
2022/08/04 12:24:53;;;;;;;1.50;1.40;;;;;;;;;;5014020;28;20488;-87
2022/08/04 12:27:46;;;;;;;2.38;1.70;;;;;;;;;;4987961;28;20026;-87
2022/08/04 12:30:13;;;;;;;1.73;1.63;;;;;;;;;;5005935;28;20048;-87
2022/08/04 12:32:49;;;;;;;2.55;1.98;;;;;;;;;;5029176;28;20033;-87
2022/08/04 12:35:37;;;;;;;1.92;1.50;;;;;;;;;;5031308;28;20048;-87
2022/08/04 12:38:07;;;;;;;2.22;1.65;;;;;;;;;;5008986;28;20021;-87
2022/08/04 12:40:44;;;;;;;4.22;1.70;;;;;;;;;;5029537;28;20018;-87
2022/08/04 12:43:16;;;;;;;2.08;1.70;;;;;;;;;;5028026;28;20028;-88
2022/08/04 12:46:05;;;;;;;3.00;1.67;;;;;;;;;;5027076;28;20038;-87
2022/08/04 12:48:32;;;;;;;1.88;1.70;;;;;;;;;;5026136;28;20044;-87
2022/08/04 12:50:58;;;;;;;1.73;1.60;;;;;;;;;;5030624;28;20468;-87
2022/08/04 12:53:39;;;;;;;2.38;1.60;;;;;;;;;;5022301;28;20036;-87
2022/08/04 12:56:06;;;;;;;;;;;;;;;;;;5026866;28;20018;-87
2022/08/04 12:58:35;;;;;;;10.77;1.95;;;;;;;;;;5033502;28;20378;-87
2022/08/04 13:01:06;;;;;;;2.28;1.90;;;;;;;;;;5024363;28;20076;-89
2022/08/04 13:03:41;;;;;;;3.47;1.80;;;;;;;;;;5030580;28;20025;-86
2022/08/04 13:06:09;;;;;;;11.73;1.98;;;;;;;;;;5010409;28;20026;-87
2022/08/04 13:08:37;;;;;;;2.80;1.70;;;;;;;;;;5023909;28;20067;-87
2022/08/04 13:11:03;;;;;;;3.63;1.80;;;;;;;;;;5031357;28;20071;-86
2022/08/04 13:13:33;;;;;;;9.65;1.50;;;;;;;;;;5031705;28;20175;-87
2022/08/04 13:16:04;;;;;;;1.75;1.65;;;;;;;;;;5029444;28;20091;-85
2022/08/04 13:18:38;;;;;;;4.15;1.98;;;;;;;;;;5012175;28;20026;-84
2022/08/04 13:21:21;;;;;;;3.85;1.60;;;;;;;;;;5038375;28;20013;-86
2022/08/04 13:23:49;;;;;;;5.13;1.80;;;;;;;;;;5038412;28;20089;-86
2022/08/04 13:26:16;;;;;;;5.05;1.70;;;;;;;;;;5022072;28;20053;-84
2022/08/04 13:28:51;;;;;;;3.40;1.33;;;;;;;;;;5031213;28;20085;-85
2022/08/04 13:31:19;;;;;;;3.35;1.63;;;;;;;;;;5024282;28;20029;-86
2022/08/04 13:33:48;;;;;;;1.40;1.23;;;;;;;;;;5025000;28;20014;-85
2022/08/04 13:36:16;;;;;;;1.90;1.50;;;;;;;;;;5014097;28;20050;-85
2022/08/04 13:38:51;;;;;;;2.65;1.90;;;;;;;;;;4991394;28;20030;-86
2022/08/04 13:41:18;;;;;;;2.72;1.90;;;;;;;;;;5010380;28;20096;-85
2022/08/04 13:43:50;;;;;;;2.97;1.70;;;;;;;;;;4987686;28;20029;-86
2022/08/04 13:46:25;;;;;;;1.75;1.52;;;;;;;;;;5001052;28;20021;-87
2022/08/04 13:48:51;;;;;;;4.30;1.70;;;;;;;;;;5003646;28;20038;-86
2022/08/04 13:51:20;;;;;;;4.35;1.67;;;;;;;;;;5024605;28;20026;-87
2022/08/04 13:53:55;;;;;;;2.97;1.80;;;;;;;;;;5026780;28;20048;-85
2022/08/04 13:56:21;;;;;;;2.30;1.70;;;;;;;;;;5001033;28;20022;-84
2022/08/04 13:58:52;;;;;;;6.05;1.70;;;;;;;;;;5018944;28;20057;-86
2022/08/04 14:01:21;;;;;;;3.28;1.50;;;;;;;;;;5027220;28;20103;-86
2022/08/04 14:03:49;;;;;;;2.40;1.50;;;;;;;;;;5022778;28;20030;-85
2022/08/04 14:06:28;;;;;;;1.73;1.48;;;;;;;;;;5025242;28;20033;-82
2022/08/04 14:08:58;;;;;;;3.97;1.75;;;;;;;;;;5025248;28;20093;-85
2022/08/04 14:11:37;;;;;;;5.68;1.83;;;;;;;;;;5024099;28;20048;-84
2022/08/04 14:14:16;;;;;;;3.17;1.63;;;;;;;;;;5019687;28;20029;-85
2022/08/04 14:17:05;;;;;;;1.85;1.48;;;;;;;;;;4998396;28;20029;-87
2022/08/04 14:19:47;;;;;;;1.63;1.52;;;;;;;;;;5001870;28;20333;-85
2022/08/04 14:22:24;;;;;;;1.73;1.58;;;;;;;;;;5017516;28;20061;-86
2022/08/04 14:25:06;;;;;;;4.10;1.75;;;;;;;;;;5018246;28;20119;-83
2022/08/04 14:27:48;;;;;;;1.77;1.67;;;;;;;;;;4999747;28;20041;-86
2022/08/04 14:30:25;;;;;;;2.95;1.90;;;;;;;;;;5018951;28;20379;-85
2022/08/04 14:33:11;;;;;;;2.03;1.83;;;;;;;;;;5023058;28;20100;-86
2022/08/04 14:35:37;;;;;;;2.55;1.80;;;;;;;;;;5013000;28;20034;-84
2022/08/04 14:38:10;;;;;;;2.00;1.70;;;;;;;;;;5021858;28;20036;-85
2022/08/04 14:40:41;;;;;;;1.80;1.70;;;;;;;;;;5023958;28;20034;-86
2022/08/04 14:43:08;;;;;;;2.40;1.83;;;;;;;;;;5023954;28;20511;-87
2022/08/04 14:45:42;;;;;;;2.67;1.80;;;;;;;;;;5024368;28;20034;-85
2022/08/04 14:48:12;;;;;;;4.40;2.03;;;;;;;;;;5023972;28;20029;-85
2022/08/04 14:50:41;;;;;;;1.60;1.50;;;;;;;;;;5029824;28;20025;-85
2022/08/04 14:53:13;;;;;;;1.60;1.50;;;;;;;;;;5020661;28;20050;-84
2022/08/04 14:55:42;;;;;;;3.97;1.60;;;;;;;;;;5006873;28;20033;-86
2022/08/04 14:58:20;;;;;;;1.95;1.75;;;;;;;;;;5017292;28;20022;-85
2022/08/04 15:00:47;;;;;;;1.70;1.60;;;;;;;;;;5024675;28;20045;-85
2022/08/04 15:03:13;;;;;;;6.90;2.10;;;;;;;;;;5006430;28;20531;-85
2022/08/04 15:05:41;;;;;;;3.40;1.70;;;;;;;;;;5007110;28;20041;-86
2022/08/04 15:08:07;;;;;;;2.10;1.70;;;;;;;;;;5024015;28;20034;-85
2022/08/04 15:10:33;;;;;;;1.65;1.55;;;;;;;;;;5025363;28;20029;-86
2022/08/04 15:13:01;;;;;;;2.88;1.48;;;;;;;;;;5023995;28;20376;-85
2022/08/04 15:15:27;;;;;;;1.52;1.42;;;;;;;;;;5023477;28;20033;-84
2022/08/04 15:17:53;;;;;;;6.03;1.63;;;;;;;;;;5007219;28;20030;-84
2022/08/04 15:20:19;;;;;;;3.90;1.48;;;;;;;;;;5006253;28;20033;-85
2022/08/04 15:22:45;;;;;;;2.08;1.83;;;;;;;;;;5004452;28;20021;-84
2022/08/04 15:25:10;;;;;;;2.58;1.60;;;;;;;;;;5020571;28;20123;-85
2022/08/04 15:27:38;;;;;;;1.50;1.40;;;;;;;;;;5000507;28;20024;-84
2022/08/04 15:30:12;;;;;;;2.85;1.75;;;;;;;;;;5002920;28;20053;-85
2022/08/04 15:32:41;;;;;;;8.38;1.80;;;;;;;;;;5018899;28;20026;-85
2022/08/04 15:35:11;;;;;;;2.22;1.55;;;;;;;;;;5024096;28;20021;-86
2022/08/04 15:37:55;;;;;;;1.40;1.30;;;;;;;;;;5004529;28;20061;-86
2022/08/04 15:40:42;;;;;;;1.85;1.58;;;;;;;;;;5001604;28;20026;-85
2022/08/04 15:43:41;;;;;;;1.40;1.30;;;;;;;;;;5013869;28;20057;-86
2022/08/04 15:46:07;;;;;;;1.80;1.58;;;;;;;;;;4998488;28;20088;-85
2022/08/04 15:48:32;;;;;;;4.03;1.55;;;;;;;;;;5021953;28;20021;-85
2022/08/04 15:50:59;;;;;;;5.30;1.70;;;;;;;;;;5012804;28;20056;-85
2022/08/04 15:53:56;;;;;;;3.72;1.77;;;;;;;;;;5002677;28;20057;-84
2022/08/04 15:56:22;;;;;;;2.90;1.50;;;;;;;;;;5023862;28;20026;-85
2022/08/04 15:58:49;;;;;;;3.30;1.50;;;;;;;;;;5020612;28;20064;-85
2022/08/04 16:01:16;;;;;;;2.15;1.45;;;;;;;;;;5005915;28;20294;-85
2022/08/04 16:03:49;;;;;;;4.75;1.75;;;;;;;;;;5020565;28;20022;-85
2022/08/04 16:06:15;;;;;;;2.22;1.50;;;;;;;;;;5001685;28;20038;-84